sensor_id;sensor_type;location;lat;lon;timestamp;temperature;humidity
11619;DHT22;5865;48.776;9.280;2024-01-10T07:28:24;-5.60;99.90
11619;DHT22;5865;48.776;9.280;2024-01-10T09:47:39;-1.80;99.90
11619;DHT22;5865;48.776;9.280;2024-01-10T09:52:41;-1.80;99.90
11619;DHT22;5865;48.776;9.280;2024-01-10T10:00:16;-1.50;99.90
11619;DHT22;5865;48.776;9.280;2024-01-10T10:02:46;-1.60;99.90
11619;DHT22;5865;48.776;9.280;2024-01-10T10:05:16;-1.30;99.90
11619;DHT22;5865;48.776;9.280;2024-01-10T10:07:46;-1.30;99.90
11619;DHT22;5865;48.776;9.280;2024-01-10T10:10:17;-1.00;99.90
11619;DHT22;5865;48.776;9.280;2024-01-10T10:15:16;-1.20;99.90
11619;DHT22;5865;48.776;9.280;2024-01-10T10:17:45;-1.00;99.90
11619;DHT22;5865;48.776;9.280;2024-01-10T10:20:14;-0.90;99.90
11619;DHT22;5865;48.776;9.280;2024-01-10T10:22:59;-0.90;99.90
11619;DHT22;5865;48.776;9.280;2024-01-10T10:27:54;-0.60;99.90
11619;DHT22;5865;48.776;9.280;2024-01-10T10:30:22;-0.70;99.90
11619;DHT22;5865;48.776;9.280;2024-01-10T10:35:19;-0.50;99.90
11619;DHT22;5865;48.776;9.280;2024-01-10T10:37:51;-0.60;99.90
11619;DHT22;5865;48.776;9.280;2024-01-10T10:40:23;-0.50;99.90
11619;DHT22;5865;48.776;9.280;2024-01-10T10:42:59;-0.50;99.90
11619;DHT22;5865;48.776;9.280;2024-01-10T10:45:31;-0.50;99.90
11619;DHT22;5865;48.776;9.280;2024-01-10T10:48:00;-0.50;99.90
11619;DHT22;5865;48.776;9.280;2024-01-10T10:50:30;-0.40;99.90
11619;DHT22;5865;48.776;9.280;2024-01-10T10:53:03;-0.40;99.90
11619;DHT22;5865;48.776;9.280;2024-01-10T10:55:30;-0.40;99.90
11619;DHT22;5865;48.776;9.280;2024-01-10T10:57:58;-0.30;99.90
11619;DHT22;5865;48.776;9.280;2024-01-10T11:00:27;-0.40;99.90
11619;DHT22;5865;48.776;9.280;2024-01-10T11:02:56;-0.20;99.90
11619;DHT22;5865;48.776;9.280;2024-01-10T11:05:24;-0.10;99.90
11619;DHT22;5865;48.776;9.280;2024-01-10T11:07:52;0.20;99.90
11619;DHT22;5865;48.776;9.280;2024-01-10T11:10:23;0.20;99.90
11619;DHT22;5865;48.776;9.280;2024-01-10T11:13:03;0.30;99.90
11619;DHT22;5865;48.776;9.280;2024-01-10T11:15:54;0.20;99.90
11619;DHT22;5865;48.776;9.280;2024-01-10T11:18:49;0.40;99.90
11619;DHT22;5865;48.776;9.280;2024-01-10T11:21:22;2.10;99.90
11619;DHT22;5865;48.776;9.280;2024-01-10T11:23:54;0.10;99.90
11619;DHT22;5865;48.776;9.280;2024-01-10T11:26:22;0.10;99.90
11619;DHT22;5865;48.776;9.280;2024-01-10T11:28:50;0.00;99.90
11619;DHT22;5865;48.776;9.280;2024-01-10T11:31:27;0.10;99.90
11619;DHT22;5865;48.776;9.280;2024-01-10T11:33:57;0.10;99.90
11619;DHT22;5865;48.776;9.280;2024-01-10T11:38:58;0.10;99.90
11619;DHT22;5865;48.776;9.280;2024-01-10T11:41:28;0.00;99.90
11619;DHT22;5865;48.776;9.280;2024-01-10T11:47:08;0.60;99.90
11619;DHT22;5865;48.776;9.280;2024-01-10T11:52:04;0.70;99.90
11619;DHT22;5865;48.776;9.280;2024-01-10T11:54:39;1.10;99.90
11619;DHT22;5865;48.776;9.280;2024-01-10T11:59:39;0.80;99.90
11619;DHT22;5865;48.776;9.280;2024-01-10T12:04:34;1.00;99.90
11619;DHT22;5865;48.776;9.280;2024-01-10T12:07:04;1.00;99.90
11619;DHT22;5865;48.776;9.280;2024-01-10T12:09:33;1.10;99.90
11619;DHT22;5865;48.776;9.280;2024-01-10T12:12:00;1.10;99.90
11619;DHT22;5865;48.776;9.280;2024-01-10T12:14:27;1.30;99.90
11619;DHT22;5865;48.776;9.280;2024-01-10T12:16:54;1.30;99.90
11619;DHT22;5865;48.776;9.280;2024-01-10T12:19:21;-1.20;99.90
11619;DHT22;5865;48.776;9.280;2024-01-10T12:21:48;1.20;99.90
11619;DHT22;5865;48.776;9.280;2024-01-10T12:24:20;1.10;99.90
11619;DHT22;5865;48.776;9.280;2024-01-10T12:26:47;1.40;99.90
11619;DHT22;5865;48.776;9.280;2024-01-10T12:29:17;1.40;99.90
11619;DHT22;5865;48.776;9.280;2024-01-10T12:34:12;1.00;99.90
11619;DHT22;5865;48.776;9.280;2024-01-10T12:36:39;1.10;99.90
11619;DHT22;5865;48.776;9.280;2024-01-10T12:39:07;1.20;99.90
11619;DHT22;5865;48.776;9.280;2024-01-10T12:41:36;1.30;99.90
11619;DHT22;5865;48.776;9.280;2024-01-10T12:44:04;1.20;99.90
11619;DHT22;5865;48.776;9.280;2024-01-10T12:46:32;1.10;99.90
11619;DHT22;5865;48.776;9.280;2024-01-10T12:49:01;1.10;99.90
11619;DHT22;5865;48.776;9.280;2024-01-10T12:53:59;1.30;99.90
11619;DHT22;5865;48.776;9.280;2024-01-10T12:56:26;1.50;99.90
11619;DHT22;5865;48.776;9.280;2024-01-10T12:58:55;1.70;99.90
11619;DHT22;5865;48.776;9.280;2024-01-10T13:01:22;1.40;99.90
11619;DHT22;5865;48.776;9.280;2024-01-10T13:08:48;1.50;99.90
11619;DHT22;5865;48.776;9.280;2024-01-10T13:16:11;1.70;99.90
11619;DHT22;5865;48.776;9.280;2024-01-10T13:18:38;1.80;99.90
11619;DHT22;5865;48.776;9.280;2024-01-10T13:21:06;1.90;99.90
11619;DHT22;5865;48.776;9.280;2024-01-10T13:23:35;1.80;99.90
11619;DHT22;5865;48.776;9.280;2024-01-10T13:26:03;1.60;99.90
11619;DHT22;5865;48.776;9.280;2024-01-10T13:33:28;1.50;99.90
11619;DHT22;5865;48.776;9.280;2024-01-10T13:35:55;1.50;99.90
11619;DHT22;5865;48.776;9.280;2024-01-10T13:38:22;1.60;99.90
11619;DHT22;5865;48.776;9.280;2024-01-10T13:43:20;1.60;99.90
11619;DHT22;5865;48.776;9.280;2024-01-10T13:45:52;1.60;99.90
11619;DHT22;5865;48.776;9.280;2024-01-10T13:48:20;1.70;99.90
11619;DHT22;5865;48.776;9.280;2024-01-10T13:53:18;1.70;99.90
11619;DHT22;5865;48.776;9.280;2024-01-10T13:55:45;1.70;99.90
11619;DHT22;5865;48.776;9.280;2024-01-10T14:00:39;1.70;99.90
11619;DHT22;5865;48.776;9.280;2024-01-10T14:03:06;1.60;99.90
11619;DHT22;5865;48.776;9.280;2024-01-10T14:10:30;2.60;99.90
11619;DHT22;5865;48.776;9.280;2024-01-10T14:13:10;3.70;99.90
11619;DHT22;5865;48.776;9.280;2024-01-10T14:18:04;4.50;99.90
11619;DHT22;5865;48.776;9.280;2024-01-10T14:20:32;5.10;99.90
11619;DHT22;5865;48.776;9.280;2024-01-10T14:23:03;6.70;99.20
11619;DHT22;5865;48.776;9.280;2024-01-10T14:25:31;6.70;99.70
11619;DHT22;5865;48.776;9.280;2024-01-10T14:30:28;7.60;95.10
11619;DHT22;5865;48.776;9.280;2024-01-10T14:35:25;5.90;99.00
11619;DHT22;5865;48.776;9.280;2024-01-10T14:37:53;5.80;97.90
11619;DHT22;5865;48.776;9.280;2024-01-10T14:45:20;5.60;97.60
11619;DHT22;5865;48.776;9.280;2024-01-10T14:48:06;5.50;96.90
11619;DHT22;5865;48.776;9.280;2024-01-10T16:12:48;-2.60;99.90
11619;DHT22;5865;48.776;9.280;2024-01-10T16:15:16;-2.80;99.90
11619;DHT22;5865;48.776;9.280;2024-01-10T16:17:43;-2.80;99.90
11619;DHT22;5865;48.776;9.280;2024-01-10T16:20:11;-2.70;99.90
11619;DHT22;5865;48.776;9.280;2024-01-10T16:22:38;-2.80;99.90
11619;DHT22;5865;48.776;9.280;2024-01-10T16:25:07;-2.90;99.90
11619;DHT22;5865;48.776;9.280;2024-01-10T16:27:34;-3.10;99.90
11619;DHT22;5865;48.776;9.280;2024-01-10T16:30:01;-3.20;99.90
11619;DHT22;5865;48.776;9.280;2024-01-10T16:32:28;-3.20;99.90
11619;DHT22;5865;48.776;9.280;2024-01-10T16:34:55;-3.30;99.90
11619;DHT22;5865;48.776;9.280;2024-01-10T16:37:23;-3.20;99.90
11619;DHT22;5865;48.776;9.280;2024-01-10T16:39:50;-3.30;99.90
11619;DHT22;5865;48.776;9.280;2024-01-10T16:42:18;-3.40;99.90
11619;DHT22;5865;48.776;9.280;2024-01-10T16:47:13;-3.50;99.90
11619;DHT22;5865;48.776;9.280;2024-01-10T16:49:40;-3.60;99.90
11619;DHT22;5865;48.776;9.280;2024-01-10T16:52:07;-3.60;99.90
11619;DHT22;5865;48.776;9.280;2024-01-10T16:54:34;-3.60;99.90
11619;DHT22;5865;48.776;9.280;2024-01-10T16:57:01;-3.70;99.90
11619;DHT22;5865;48.776;9.280;2024-01-10T16:59:30;-3.70;99.90
11619;DHT22;5865;48.776;9.280;2024-01-10T17:01:57;-3.70;99.90
11619;DHT22;5865;48.776;9.280;2024-01-10T17:04:24;-3.80;99.90
11619;DHT22;5865;48.776;9.280;2024-01-10T17:06:51;-3.80;99.90
11619;DHT22;5865;48.776;9.280;2024-01-10T17:09:18;-3.80;99.90
11619;DHT22;5865;48.776;9.280;2024-01-10T17:11:45;-3.90;99.90
11619;DHT22;5865;48.776;9.280;2024-01-10T17:14:12;-3.90;99.90
11619;DHT22;5865;48.776;9.280;2024-01-10T17:16:43;-4.00;99.90
11619;DHT22;5865;48.776;9.280;2024-01-10T17:19:10;-3.90;99.90
11619;DHT22;5865;48.776;9.280;2024-01-10T17:21:38;-4.00;99.90
11619;DHT22;5865;48.776;9.280;2024-01-10T17:24:05;-4.00;99.90
11619;DHT22;5865;48.776;9.280;2024-01-10T17:26:32;-4.10;99.90
11619;DHT22;5865;48.776;9.280;2024-01-10T17:28:59;-4.20;99.90
11619;DHT22;5865;48.776;9.280;2024-01-10T17:31:26;-4.10;99.90
11619;DHT22;5865;48.776;9.280;2024-01-10T17:33:54;-4.20;99.90
11619;DHT22;5865;48.776;9.280;2024-01-10T17:36:22;-4.20;99.90
11619;DHT22;5865;48.776;9.280;2024-01-10T17:38:49;-4.20;99.90
11619;DHT22;5865;48.776;9.280;2024-01-10T17:41:17;-4.30;99.90
11619;DHT22;5865;48.776;9.280;2024-01-10T17:43:44;-4.40;99.90
11619;DHT22;5865;48.776;9.280;2024-01-10T17:46:11;-4.40;99.90
11619;DHT22;5865;48.776;9.280;2024-01-10T17:48:38;-4.40;99.90
11619;DHT22;5865;48.776;9.280;2024-01-10T17:51:06;-4.30;99.90
11619;DHT22;5865;48.776;9.280;2024-01-10T17:53:33;-4.20;99.90
11619;DHT22;5865;48.776;9.280;2024-01-10T17:56:00;-4.30;99.90
11619;DHT22;5865;48.776;9.280;2024-01-10T17:58:27;-4.30;99.90
11619;DHT22;5865;48.776;9.280;2024-01-10T18:03:21;-4.40;99.90
11619;DHT22;5865;48.776;9.280;2024-01-10T18:05:48;-4.50;99.90
11619;DHT22;5865;48.776;9.280;2024-01-10T18:08:16;-4.50;99.90
11619;DHT22;5865;48.776;9.280;2024-01-10T18:10:43;-4.50;99.90
11619;DHT22;5865;48.776;9.280;2024-01-10T18:13:13;-4.50;99.90
11619;DHT22;5865;48.776;9.280;2024-01-10T18:15:40;-4.50;99.90
11619;DHT22;5865;48.776;9.280;2024-01-10T18:18:07;-4.50;99.90
11619;DHT22;5865;48.776;9.280;2024-01-10T18:20:34;-4.50;99.90
11619;DHT22;5865;48.776;9.280;2024-01-10T18:23:01;-4.50;99.90
11619;DHT22;5865;48.776;9.280;2024-01-10T18:25:30;-4.70;99.90
11619;DHT22;5865;48.776;9.280;2024-01-10T18:27:56;-4.70;99.90
11619;DHT22;5865;48.776;9.280;2024-01-10T18:30:24;-4.70;99.90
11619;DHT22;5865;48.776;9.280;2024-01-10T18:32:52;-4.70;99.90
11619;DHT22;5865;48.776;9.280;2024-01-10T18:35:21;-4.80;99.90
11619;DHT22;5865;48.776;9.280;2024-01-10T18:37:48;-4.80;99.90
11619;DHT22;5865;48.776;9.280;2024-01-10T18:42:43;-4.90;99.90
11619;DHT22;5865;48.776;9.280;2024-01-10T18:45:10;-4.90;99.90
11619;DHT22;5865;48.776;9.280;2024-01-10T18:47:38;-4.90;99.90
11619;DHT22;5865;48.776;9.280;2024-01-10T18:50:05;-5.00;99.90
11619;DHT22;5865;48.776;9.280;2024-01-10T18:52:32;-5.00;99.90
11619;DHT22;5865;48.776;9.280;2024-01-10T18:54:59;-5.00;99.90
11619;DHT22;5865;48.776;9.280;2024-01-10T18:57:26;-5.10;99.90
11619;DHT22;5865;48.776;9.280;2024-01-10T19:02:22;-5.10;99.90
11619;DHT22;5865;48.776;9.280;2024-01-10T19:04:49;-5.10;99.90
11619;DHT22;5865;48.776;9.280;2024-01-10T19:07:15;-5.10;99.90
11619;DHT22;5865;48.776;9.280;2024-01-10T19:09:42;-5.10;99.90
11619;DHT22;5865;48.776;9.280;2024-01-10T19:12:09;-5.10;99.90
11619;DHT22;5865;48.776;9.280;2024-01-10T19:14:36;-5.20;99.90
11619;DHT22;5865;48.776;9.280;2024-01-10T19:17:05;-5.30;99.90
11619;DHT22;5865;48.776;9.280;2024-01-10T19:19:32;-5.30;99.90
11619;DHT22;5865;48.776;9.280;2024-01-10T19:22:01;-5.30;99.90
11619;DHT22;5865;48.776;9.280;2024-01-10T19:24:30;-5.30;99.90
11619;DHT22;5865;48.776;9.280;2024-01-10T19:26:57;-5.40;99.90
11619;DHT22;5865;48.776;9.280;2024-01-10T19:29:24;-5.30;99.90
11619;DHT22;5865;48.776;9.280;2024-01-10T21:08:41;-6.00;99.90
